Time;durP1;ratioP1;P1;durP2;ratioP2;P2;SDS_P1;SDS_P2;PMS_P1;PMS_P2;Temp;Humidity;BMP_temperature;BMP_pressure;BME280_temperature;BME280_humidity;BME280_pressure;Samples;Min_cycle;Max_cycle;Signal;HPM_P1;HPM_P2
2022/07/23 00:00:48;;;;;;;4.28;2.67;;;;;;;;;;4999220;28;93953;-72
2022/07/23 00:03:15;;;;;;;4.05;2.85;;;;;;;;;;4996604;28;93192;-72
2022/07/23 00:05:41;;;;;;;7.38;2.78;;;;;;;;;;4998026;28;92818;-72
2022/07/23 00:08:08;;;;;;;2.60;2.40;;;;;;;;;;4996317;28;93604;-72
2022/07/23 00:10:39;;;;;;;3.47;3.20;;;;;;;;;;4996399;28;91991;-72
2022/07/23 00:13:06;;;;;;;6.28;3.53;;;;;;;;;;4995306;28;92677;-72
2022/07/23 00:15:32;;;;;;;7.68;3.65;;;;;;;;;;4999003;28;93442;-72
2022/07/23 00:17:59;;;;;;;6.35;3.40;;;;;;;;;;4993773;28;94872;-72
2022/07/23 00:20:25;;;;;;;4.72;3.70;;;;;;;;;;4996407;28;94166;-72
2022/07/23 00:22:52;;;;;;;4.78;3.42;;;;;;;;;;4996786;27;92543;-72
2022/07/23 00:25:20;;;;;;;5.47;2.92;;;;;;;;;;4994901;28;93221;-72
2022/07/23 00:27:56;;;;;;;3.83;2.58;;;;;;;;;;4995447;28;93396;-73
2022/07/23 00:30:22;;;;;;;5.82;3.38;;;;;;;;;;4995616;28;92476;-72
2022/07/23 00:32:50;;;;;;;3.28;3.03;;;;;;;;;;4995059;28;93061;-72
2022/07/23 00:35:23;;;;;;;5.65;3.78;;;;;;;;;;4996695;28;93066;-72
2022/07/23 00:37:49;;;;;;;4.82;3.28;;;;;;;;;;4999292;28;93069;-72
2022/07/23 00:40:16;;;;;;;3.75;3.08;;;;;;;;;;5026943;28;95221;-72
2022/07/23 00:42:42;;;;;;;4.55;3.08;;;;;;;;;;4994011;28;94851;-72
2022/07/23 00:45:09;;;;;;;5.85;3.40;;;;;;;;;;4995285;28;94086;-73
2022/07/23 00:47:35;;;;;;;4.60;3.50;;;;;;;;;;4995675;28;94434;-72
2022/07/23 00:50:03;;;;;;;3.78;3.35;;;;;;;;;;4995251;28;93637;-72
2022/07/23 00:52:31;;;;;;;3.50;3.20;;;;;;;;;;4995667;28;94690;-72
2022/07/23 00:54:57;;;;;;;4.03;3.63;;;;;;;;;;4993611;28;95145;-72
2022/07/23 00:57:24;;;;;;;6.70;3.60;;;;;;;;;;4995635;28;92507;-72
2022/07/23 00:59:54;;;;;;;4.13;3.40;;;;;;;;;;4998654;28;93025;-72
2022/07/23 01:02:20;;;;;;;4.95;3.67;;;;;;;;;;4993358;28;92558;-72
2022/07/23 01:04:47;;;;;;;4.72;4.05;;;;;;;;;;4994687;28;92724;-72
2022/07/23 01:07:13;;;;;;;9.27;3.90;;;;;;;;;;4994025;28;95565;-72
2022/07/23 01:09:40;;;;;;;4.18;3.80;;;;;;;;;;4994386;28;93947;-71
2022/07/23 01:12:06;;;;;;;4.75;4.10;;;;;;;;;;4999479;28;92533;-72
2022/07/23 01:14:33;;;;;;;6.03;4.50;;;;;;;;;;4993034;28;93564;-72
2022/07/23 01:16:59;;;;;;;8.18;4.60;;;;;;;;;;4993918;28;92631;-72
2022/07/23 01:19:26;;;;;;;10.05;4.47;;;;;;;;;;4996778;28;92918;-72
2022/07/23 01:21:53;;;;;;;9.93;4.60;;;;;;;;;;4992966;28;92684;-72
2022/07/23 01:24:19;;;;;;;5.20;4.70;;;;;;;;;;4994226;28;93844;-73
2022/07/23 01:26:54;;;;;;;5.13;4.72;;;;;;;;;;5019622;28;93355;-72
2022/07/23 01:29:21;;;;;;;8.68;5.47;;;;;;;;;;4993305;28;92539;-72
2022/07/23 01:31:48;;;;;;;6.50;4.60;;;;;;;;;;4991513;28;94916;-73
2022/07/23 01:34:15;;;;;;;8.23;4.88;;;;;;;;;;4995415;28;93486;-73
2022/07/23 01:36:42;;;;;;;10.77;4.88;;;;;;;;;;4992673;28;92547;-72
2022/07/23 01:39:09;;;;;;;5.43;4.95;;;;;;;;;;4993170;28;92979;-73
2022/07/23 01:41:36;;;;;;;5.22;4.75;;;;;;;;;;4995660;28;93117;-72
2022/07/23 01:44:03;;;;;;;5.05;4.63;;;;;;;;;;4992996;28;94806;-72
2022/07/23 01:46:30;;;;;;;9.15;4.60;;;;;;;;;;4995045;28;93965;-73
2022/07/23 01:48:57;;;;;;;13.05;5.07;;;;;;;;;;4993699;28;93383;-72
2022/07/23 01:51:59;;;;;;;10.35;4.70;;;;;;;;;;4991729;28;92877;-72
2022/07/23 01:54:31;;;;;;;5.50;4.43;;;;;;;;;;4993399;28;93185;-73
2022/07/23 01:56:58;;;;;;;5.22;4.60;;;;;;;;;;4974761;28;94928;-73
2022/07/23 01:59:25;;;;;;;7.55;4.55;;;;;;;;;;4993282;28;97390;-73
2022/07/23 02:01:52;;;;;;;5.63;4.28;;;;;;;;;;4992644;28;93176;-72
2022/07/23 02:04:19;;;;;;;5.05;4.47;;;;;;;;;;4997857;28;92473;-72
2022/07/23 02:06:46;;;;;;;4.90;4.47;;;;;;;;;;4994222;28;93140;-72
2022/07/23 02:09:13;;;;;;;5.28;4.90;;;;;;;;;;4994924;28;92550;-73
2022/07/23 02:11:39;;;;;;;5.80;5.30;;;;;;;;;;4993812;28;92601;-72
2022/07/23 02:14:05;;;;;;;6.10;5.50;;;;;;;;;;4994983;28;92745;-72
2022/07/23 02:16:32;;;;;;;6.88;4.65;;;;;;;;;;4993270;28;93565;-73
2022/07/23 02:19:01;;;;;;;5.75;5.00;;;;;;;;;;4992812;28;94207;-73
2022/07/23 02:21:28;;;;;;;7.07;5.10;;;;;;;;;;4993289;28;95340;-72
2022/07/23 02:23:54;;;;;;;7.72;5.50;;;;;;;;;;4992365;28;92477;-72
2022/07/23 02:26:21;;;;;;;5.85;5.25;;;;;;;;;;4995505;28;93341;-72
2022/07/23 02:28:52;;;;;;;11.50;5.38;;;;;;;;;;4993182;28;92633;-73
2022/07/23 02:31:19;;;;;;;12.93;6.03;;;;;;;;;;4994129;28;94441;-73
2022/07/23 02:33:45;;;;;;;7.07;4.88;;;;;;;;;;4991987;28;93992;-72
2022/07/23 02:36:13;;;;;;;8.48;5.75;;;;;;;;;;4993166;28;92991;-72
2022/07/23 02:38:40;;;;;;;7.15;5.35;;;;;;;;;;4999414;28;92642;-72
2022/07/23 02:41:07;;;;;;;6.43;5.65;;;;;;;;;;4992578;28;93221;-72
2022/07/23 02:43:34;;;;;;;6.68;5.53;;;;;;;;;;4992326;28;92524;-72
2022/07/23 02:46:00;;;;;;;6.43;5.18;;;;;;;;;;4991226;28;94831;-73
2022/07/23 02:48:27;;;;;;;8.13;6.25;;;;;;;;;;4997054;28;93172;-72
2022/07/23 02:50:56;;;;;;;6.50;5.80;;;;;;;;;;4992578;28;94906;-72
2022/07/23 02:53:27;;;;;;;10.15;6.28;;;;;;;;;;4992114;28;93424;-72
2022/07/23 02:55:53;;;;;;;7.70;6.00;;;;;;;;;;4994114;28;92436;-72
2022/07/23 02:58:21;;;;;;;6.68;5.63;;;;;;;;;;4992600;28;92550;-73
2022/07/23 03:00:47;;;;;;;6.45;5.57;;;;;;;;;;5025369;27;95184;-72
2022/07/23 03:03:14;;;;;;;6.05;5.32;;;;;;;;;;4993316;28;91808;-72
2022/07/23 03:05:41;;;;;;;11.88;6.00;;;;;;;;;;4991080;28;93426;-73
2022/07/23 03:08:07;;;;;;;6.05;5.22;;;;;;;;;;4990946;28;94771;-72
2022/07/23 03:10:36;;;;;;;8.63;6.03;;;;;;;;;;4993803;28;94958;-72
2022/07/23 03:13:03;;;;;;;8.65;6.38;;;;;;;;;;4991402;28;95143;-73
2022/07/23 03:15:30;;;;;;;5.82;5.43;;;;;;;;;;4992938;28;92531;-72
2022/07/23 03:17:57;;;;;;;7.80;7.07;;;;;;;;;;4991907;28;93671;-72
2022/07/23 03:20:23;;;;;;;7.82;7.07;;;;;;;;;;4993770;28;93779;-72
2022/07/23 03:22:50;;;;;;;9.27;6.82;;;;;;;;;;4991014;28;92590;-71
2022/07/23 03:25:16;;;;;;;7.40;6.57;;;;;;;;;;4992040;28;95597;-72
2022/07/23 03:27:45;;;;;;;7.03;6.53;;;;;;;;;;4992452;28;94000;-72
2022/07/23 03:30:11;;;;;;;7.07;6.47;;;;;;;;;;4994378;28;93178;-73
2022/07/23 03:32:38;;;;;;;7.68;6.72;;;;;;;;;;4992855;28;92575;-71
2022/07/23 03:35:05;;;;;;;7.60;6.82;;;;;;;;;;4989734;28;94940;-72
2022/07/23 03:37:34;;;;;;;9.45;6.75;;;;;;;;;;4994246;28;96355;-71
2022/07/23 03:40:01;;;;;;;7.43;6.82;;;;;;;;;;4995565;28;94425;-72
2022/07/23 03:42:28;;;;;;;8.77;7.32;;;;;;;;;;4995535;28;92528;-71
2022/07/23 03:44:55;;;;;;;9.55;7.55;;;;;;;;;;4995085;28;96750;-73
2022/07/23 03:47:21;;;;;;;7.75;7.03;;;;;;;;;;4995470;28;95507;-71
2022/07/23 03:49:48;;;;;;;8.32;7.63;;;;;;;;;;4994513;28;92610;-72
2022/07/23 03:52:15;;;;;;;8.32;7.70;;;;;;;;;;5000123;28;92744;-72
2022/07/23 03:54:41;;;;;;;13.27;8.50;;;;;;;;;;4996372;28;93079;-72
2022/07/23 03:57:07;;;;;;;9.23;7.63;;;;;;;;;;4994973;28;93093;-73
2022/07/23 03:59:34;;;;;;;10.00;8.50;;;;;;;;;;4993151;28;95603;-72
2022/07/23 04:02:00;;;;;;;8.38;7.57;;;;;;;;;;4995160;28;92571;-72
2022/07/23 04:04:27;;;;;;;9.43;7.45;;;;;;;;;;4994056;28;92968;-72
2022/07/23 04:06:54;;;;;;;9.02;8.13;;;;;;;;;;4994380;28;95565;-72
2022/07/23 04:09:21;;;;;;;15.80;7.97;;;;;;;;;;4996655;28;92511;-72
2022/07/23 04:11:49;;;;;;;11.35;7.90;;;;;;;;;;4993851;28;94908;-72
2022/07/23 04:14:15;;;;;;;7.90;7.20;;;;;;;;;;5000238;28;95691;-72
2022/07/23 04:16:42;;;;;;;10.38;7.57;;;;;;;;;;4994769;28;94919;-72
2022/07/23 04:19:09;;;;;;;9.77;7.47;;;;;;;;;;4994272;28;92692;-72
2022/07/23 04:21:48;;;;;;;8.13;7.43;;;;;;;;;;4994544;28;92566;-72
2022/07/23 04:24:14;;;;;;;9.15;7.25;;;;;;;;;;4992616;28;94965;-71
2022/07/23 04:26:40;;;;;;;7.82;7.18;;;;;;;;;;4993554;28;94996;-71
2022/07/23 04:29:07;;;;;;;9.38;7.53;;;;;;;;;;4994441;28;92498;-73
2022/07/23 04:31:33;;;;;;;10.05;7.00;;;;;;;;;;4994144;28;92906;-72
2022/07/23 04:34:03;;;;;;;11.13;7.78;;;;;;;;;;5027613;28;93432;-73
2022/07/23 04:36:30;;;;;;;8.52;7.63;;;;;;;;;;5002095;28;92939;-72
2022/07/23 04:38:56;;;;;;;10.35;7.53;;;;;;;;;;4992912;28;95343;-72
2022/07/23 04:41:23;;;;;;;7.78;7.18;;;;;;;;;;4995625;28;91830;-72
2022/07/23 04:43:49;;;;;;;8.57;7.18;;;;;;;;;;4994218;28;92545;-72
2022/07/23 04:46:15;;;;;;;8.82;7.68;;;;;;;;;;4992399;28;95167;-72
2022/07/23 04:48:46;;;;;;;12.07;7.28;;;;;;;;;;4992220;28;94902;-72
2022/07/23 04:51:14;;;;;;;8.38;7.30;;;;;;;;;;5027263;28;95504;-72
2022/07/23 04:53:40;;;;;;;7.68;7.10;;;;;;;;;;4993896;28;95878;-72
2022/07/23 04:56:07;;;;;;;8.15;6.88;;;;;;;;;;4994381;28;92685;-72
2022/07/23 04:58:33;;;;;;;7.47;6.97;;;;;;;;;;4996835;28;95304;-72
2022/07/23 05:01:00;;;;;;;8.23;7.43;;;;;;;;;;4993667;28;92473;-72
2022/07/23 05:03:29;;;;;;;7.53;6.82;;;;;;;;;;4994142;28;94270;-72
2022/07/23 05:05:56;;;;;;;9.05;7.53;;;;;;;;;;4997127;28;93317;-72
2022/07/23 05:08:22;;;;;;;7.85;6.97;;;;;;;;;;4993089;28;92587;-72
2022/07/23 05:10:53;;;;;;;7.50;6.80;;;;;;;;;;4995571;28;93795;-72
2022/07/23 05:13:20;;;;;;;8.15;7.35;;;;;;;;;;4992513;28;97365;-72
2022/07/23 05:15:50;;;;;;;7.40;6.75;;;;;;;;;;4993769;28;92578;-72
2022/07/23 05:18:17;;;;;;;10.55;6.90;;;;;;;;;;4993830;28;93991;-72
2022/07/23 05:20:45;;;;;;;8.13;7.22;;;;;;;;;;4996001;28;93147;-71
2022/07/23 05:23:15;;;;;;;10.00;6.85;;;;;;;;;;4994180;28;92779;-71
2022/07/23 05:25:42;;;;;;;10.82;6.38;;;;;;;;;;4991384;28;95253;-71
2022/07/23 05:28:09;;;;;;;7.32;6.57;;;;;;;;;;4993816;28;93143;-71
2022/07/23 05:30:35;;;;;;;6.82;6.18;;;;;;;;;;4992067;28;91912;-71
2022/07/23 05:33:05;;;;;;;8.23;6.40;;;;;;;;;;4994906;28;93163;-71
2022/07/23 05:35:31;;;;;;;7.68;6.95;;;;;;;;;;4985825;28;92592;-71
2022/07/23 05:38:23;;;;;;;9.02;5.97;;;;;;;;;;4991975;28;94908;-71
2022/07/23 05:40:54;;;;;;;7.15;6.45;;;;;;;;;;4998242;28;93224;-72
2022/07/23 05:43:20;;;;;;;7.43;6.45;;;;;;;;;;4990706;28;95702;-71
2022/07/23 05:45:47;;;;;;;7.13;6.22;;;;;;;;;;4990516;28;93287;-72
2022/07/23 05:48:14;;;;;;;7.72;6.43;;;;;;;;;;5030924;27;92507;-72
2022/07/23 05:50:51;;;;;;;8.82;5.72;;;;;;;;;;4996831;28;93924;-72
2022/07/23 05:53:27;;;;;;;12.73;5.43;;;;;;;;;;4991920;28;95182;-71
2022/07/23 05:56:11;;;;;;;3.13;2.80;;;;;;;;;;5001478;28;91740;-72
2022/07/23 05:58:38;;;;;;;5.50;5.07;;;;;;;;;;5013012;28;93154;-72
2022/07/23 06:01:05;;;;;;;4.93;4.43;;;;;;;;;;5006534;28;92711;-72
2022/07/23 06:03:40;;;;;;;11.38;4.72;;;;;;;;;;4982767;28;96968;-71
2022/07/23 06:06:06;;;;;;;4.65;4.18;;;;;;;;;;4993142;28;93957;-72
2022/07/23 06:08:33;;;;;;;7.18;5.00;;;;;;;;;;5021691;27;92951;-72
2022/07/23 06:10:59;;;;;;;7.55;4.20;;;;;;;;;;4990237;28;92770;-72
2022/07/23 06:13:26;;;;;;;8.50;4.30;;;;;;;;;;4989959;28;93658;-71
2022/07/23 06:15:52;;;;;;;4.60;4.13;;;;;;;;;;4984175;28;93291;-72
2022/07/23 06:18:19;;;;;;;5.43;4.00;;;;;;;;;;4984395;28;93087;-71
2022/07/23 06:20:45;;;;;;;4.97;3.45;;;;;;;;;;4980947;28;95164;-72
2022/07/23 06:23:16;;;;;;;4.35;3.50;;;;;;;;;;4974985;28;93342;-72
2022/07/23 06:25:43;;;;;;;5.43;2.90;;;;;;;;;;4983926;28;95361;-72
2022/07/23 06:28:09;;;;;;;4.72;2.40;;;;;;;;;;4976091;28;96949;-72
2022/07/23 06:30:35;;;;;;;4.03;2.45;;;;;;;;;;4984536;28;95195;-72
2022/07/23 06:33:04;;;;;;;3.35;1.75;;;;;;;;;;4991896;28;93997;-72
2022/07/23 06:35:30;;;;;;;3.25;1.52;;;;;;;;;;4994913;28;92943;-72
2022/07/23 06:37:58;;;;;;;4.35;1.83;;;;;;;;;;4981222;28;93030;-72
2022/07/23 06:40:25;;;;;;;5.68;2.03;;;;;;;;;;4986860;28;93119;-72
2022/07/23 06:42:52;;;;;;;2.90;1.92;;;;;;;;;;4983869;28;92660;-72
2022/07/23 06:45:22;;;;;;;2.40;1.52;;;;;;;;;;4991624;28;92955;-72
2022/07/23 06:47:48;;;;;;;2.53;1.50;;;;;;;;;;4992765;28;95449;-72
2022/07/23 06:50:14;;;;;;;3.83;1.42;;;;;;;;;;4992090;28;94098;-72
2022/07/23 06:52:41;;;;;;;7.10;2.13;;;;;;;;;;4987260;28;95548;-72
2022/07/23 06:55:08;;;;;;;1.60;1.50;;;;;;;;;;4985313;28;92512;-72
2022/07/23 06:57:35;;;;;;;8.82;1.63;;;;;;;;;;4993237;28;94671;-72
2022/07/23 07:00:01;;;;;;;6.03;1.45;;;;;;;;;;4990662;28;93788;-72
2022/07/23 07:02:28;;;;;;;3.78;1.50;;;;;;;;;;4976857;28;93671;-72
2022/07/23 07:04:56;;;;;;;3.38;1.48;;;;;;;;;;4998890;28;92928;-73
2022/07/23 07:07:30;;;;;;;2.55;1.48;;;;;;;;;;4977711;28;93341;-74
2022/07/23 07:09:56;;;;;;;4.93;1.67;;;;;;;;;;4983541;28;92302;-73
2022/07/23 07:12:23;;;;;;;2.25;1.10;;;;;;;;;;4980088;28;94191;-73
2022/07/23 07:14:49;;;;;;;2.80;1.73;;;;;;;;;;4980044;28;92503;-73
2022/07/23 07:17:16;;;;;;;1.75;1.13;;;;;;;;;;4984178;28;97591;-73
2022/07/23 07:19:45;;;;;;;3.97;1.35;;;;;;;;;;4979303;28;93350;-73
2022/07/23 07:22:11;;;;;;;3.22;1.10;;;;;;;;;;4985181;28;94151;-70
2022/07/23 07:24:38;;;;;;;3.42;1.30;;;;;;;;;;4981890;28;94046;-72
2022/07/23 07:27:04;;;;;;;2.83;1.27;;;;;;;;;;4981728;28;94053;-72
2022/07/23 07:29:30;;;;;;;2.53;1.55;;;;;;;;;;4981939;28;94609;-72
2022/07/23 07:31:57;;;;;;;3.72;1.50;;;;;;;;;;4984474;28;93977;-72
2022/07/23 07:34:23;;;;;;;1.65;1.20;;;;;;;;;;4987128;28;92142;-72
2022/07/23 07:36:50;;;;;;;4.28;1.30;;;;;;;;;;5005340;28;93589;-72
2022/07/23 07:39:16;;;;;;;2.22;1.23;;;;;;;;;;5003778;27;93252;-72
2022/07/23 07:41:43;;;;;;;1.42;1.20;;;;;;;;;;5013852;28;94888;-72
2022/07/23 07:44:09;;;;;;;2.22;1.02;;;;;;;;;;5016253;28;96161;-72
2022/07/23 07:46:35;;;;;;;1.88;1.48;;;;;;;;;;5002995;28;92559;-72
2022/07/23 07:49:02;;;;;;;5.03;1.58;;;;;;;;;;5008091;28;92552;-72
2022/07/23 07:51:32;;;;;;;1.83;1.33;;;;;;;;;;5017407;28;93163;-73
2022/07/23 07:53:59;;;;;;;2.60;1.40;;;;;;;;;;5007955;28;92615;-71
2022/07/23 07:56:26;;;;;;;2.38;1.10;;;;;;;;;;4976008;28;94236;-72
2022/07/23 07:58:53;;;;;;;3.13;1.30;;;;;;;;;;4980410;28;93174;-71
2022/07/23 08:01:19;;;;;;;2.25;0.90;;;;;;;;;;4988632;28;92534;-72
2022/07/23 08:03:46;;;;;;;1.92;1.10;;;;;;;;;;5015427;28;92854;-72
2022/07/23 08:06:12;;;;;;;1.80;1.30;;;;;;;;;;5008474;28;94965;-72
2022/07/23 08:08:39;;;;;;;1.63;1.25;;;;;;;;;;5008035;28;92462;-72
2022/07/23 08:11:05;;;;;;;1.60;1.10;;;;;;;;;;5015608;28;93658;-72
2022/07/23 08:13:32;;;;;;;3.92;1.20;;;;;;;;;;5019395;28;93691;-71
2022/07/23 08:15:58;;;;;;;1.42;1.00;;;;;;;;;;5006646;28;93866;-72
2022/07/23 08:18:24;;;;;;;4.00;1.25;;;;;;;;;;4996003;28;94692;-71
2022/07/23 08:20:51;;;;;;;3.63;1.20;;;;;;;;;;5000742;28;92534;-72
2022/07/23 08:23:19;;;;;;;2.53;1.30;;;;;;;;;;4988783;28;92189;-72
2022/07/23 08:25:46;;;;;;;2.85;1.15;;;;;;;;;;5015616;28;94708;-72
2022/07/23 08:28:13;;;;;;;2.25;1.00;;;;;;;;;;4981554;28;92547;-72
2022/07/23 08:30:40;;;;;;;1.60;0.90;;;;;;;;;;4981861;28;96101;-72
2022/07/23 08:33:12;;;;;;;3.35;1.08;;;;;;;;;;4997174;28;94238;-79
2022/07/23 08:35:59;;;;;;;2.78;0.90;;;;;;;;;;4993463;28;93248;-76
2022/07/23 08:38:26;;;;;;;1.90;0.80;;;;;;;;;;5014824;27;93262;-76
2022/07/23 08:40:53;;;;;;;1.35;0.93;;;;;;;;;;5015870;28;92557;-76
2022/07/23 08:43:22;;;;;;;6.40;1.27;;;;;;;;;;5008192;28;94389;-75
2022/07/23 08:45:52;;;;;;;4.30;1.00;;;;;;;;;;5010292;28;94073;-75
2022/07/23 08:48:20;;;;;;;4.25;1.20;;;;;;;;;;5006987;28;93175;-75
2022/07/23 08:50:48;;;;;;;5.72;0.93;;;;;;;;;;5015974;28;93247;-75
2022/07/23 08:53:15;;;;;;;2.22;1.30;;;;;;;;;;5009741;28;94389;-75
2022/07/23 08:55:45;;;;;;;4.30;1.10;;;;;;;;;;4989620;28;95320;-75
2022/07/23 08:58:12;;;;;;;4.40;0.93;;;;;;;;;;5005975;28;94129;-75
2022/07/23 09:00:38;;;;;;;2.92;1.20;;;;;;;;;;4998634;28;93306;-74
2022/07/23 09:03:07;;;;;;;2.00;1.05;;;;;;;;;;4980368;28;95000;-74
2022/07/23 09:05:33;;;;;;;2.47;1.05;;;;;;;;;;4991356;28;94350;-74
2022/07/23 09:08:04;;;;;;;5.25;1.40;;;;;;;;;;4986172;28;93504;-74
2022/07/23 09:10:34;;;;;;;1.58;0.90;;;;;;;;;;4982392;28;94061;-74
2022/07/23 09:13:01;;;;;;;2.27;1.13;;;;;;;;;;4980064;28;92581;-73
2022/07/23 09:15:27;;;;;;;0.98;0.90;;;;;;;;;;4986734;28;94448;-72
2022/07/23 09:17:55;;;;;;;1.55;1.13;;;;;;;;;;5001906;28;93135;-73
2022/07/23 09:20:23;;;;;;;1.17;0.80;;;;;;;;;;4990308;28;96896;-72
2022/07/23 09:22:51;;;;;;;1.00;0.90;;;;;;;;;;4983003;28;95243;-72
2022/07/23 09:25:18;;;;;;;4.57;1.48;;;;;;;;;;4979121;28;94656;-73
2022/07/23 09:27:47;;;;;;;3.42;0.98;;;;;;;;;;4985333;28;93148;-72
2022/07/23 09:30:24;;;;;;;2.25;1.50;;;;;;;;;;4978576;28;93987;-72
2022/07/23 09:33:06;;;;;;;1.50;0.97;;;;;;;;;;4979308;28;94458;-72
2022/07/23 09:35:50;;;;;;;5.63;1.10;;;;;;;;;;4978593;28;92570;-72
2022/07/23 09:38:18;;;;;;;4.68;1.35;;;;;;;;;;4979394;28;94005;-72
2022/07/23 09:40:45;;;;;;;1.60;0.88;;;;;;;;;;4982561;27;94088;-72
2022/07/23 09:43:12;;;;;;;2.17;1.15;;;;;;;;;;4982764;28;93720;-73
2022/07/23 09:45:41;;;;;;;3.05;0.98;;;;;;;;;;4981210;28;97017;-72
2022/07/23 09:48:12;;;;;;;4.35;1.10;;;;;;;;;;4980503;28;92674;-73
2022/07/23 09:50:39;;;;;;;3.20;1.07;;;;;;;;;;4977541;28;93951;-72
2022/07/23 09:53:07;;;;;;;2.15;0.93;;;;;;;;;;4976559;28;94418;-72
2022/07/23 09:55:38;;;;;;;4.88;1.13;;;;;;;;;;4977742;28;93303;-72
2022/07/23 09:58:04;;;;;;;;;;;;;;;;;;4980660;28;93695;-72
2022/07/23 10:00:31;;;;;;;3.42;1.40;;;;;;;;;;4976724;28;123527;-72
2022/07/23 10:02:58;;;;;;;3.67;1.42;;;;;;;;;;4980356;28;93887;-71
2022/07/23 10:05:28;;;;;;;1.38;0.98;;;;;;;;;;4976927;28;94269;-71
2022/07/23 10:08:13;;;;;;;2.28;1.35;;;;;;;;;;4977662;28;94003;-71
2022/07/23 10:11:10;;;;;;;3.60;0.95;;;;;;;;;;4975803;28;96119;-71
2022/07/23 10:14:07;;;;;;;1.75;1.10;;;;;;;;;;4996694;28;94488;-72
2022/07/23 10:16:55;;;;;;;2.30;0.90;;;;;;;;;;4991412;28;93481;-72
2022/07/23 10:19:22;;;;;;;1.23;0.80;;;;;;;;;;4976472;28;93826;-72
2022/07/23 10:21:52;;;;;;;3.97;0.95;;;;;;;;;;4986519;28;94355;-71
2022/07/23 10:24:25;;;;;;;1.70;1.40;;;;;;;;;;5008520;28;92622;-71
2022/07/23 10:27:03;;;;;;;1.13;0.75;;;;;;;;;;4993549;28;94484;-70
2022/07/23 10:29:29;;;;;;;2.22;0.90;;;;;;;;;;4985013;28;91790;-71
2022/07/23 10:32:05;;;;;;;1.70;0.93;;;;;;;;;;4974442;28;94720;-72
2022/07/23 10:34:34;;;;;;;2.30;1.20;;;;;;;;;;4982384;28;93281;-73
2022/07/23 10:37:13;;;;;;;1.95;1.20;;;;;;;;;;4982192;28;96252;-72
2022/07/23 10:39:46;;;;;;;1.08;0.95;;;;;;;;;;4989712;28;97795;-72
2022/07/23 10:42:14;;;;;;;1.10;0.85;;;;;;;;;;4983718;28;93857;-72
2022/07/23 10:44:42;;;;;;;1.88;1.10;;;;;;;;;;4987061;28;94155;-72
2022/07/23 10:49:36;;;;;;;1.55;1.05;;;;;;;;;;4980169;28;93305;-71
2022/07/23 10:52:14;;;;;;;1.70;1.00;;;;;;;;;;4978111;28;94470;-71
2022/07/23 10:54:50;;;;;;;0.95;0.93;;;;;;;;;;4977061;28;92682;-70
2022/07/23 10:57:18;;;;;;;1.10;0.88;;;;;;;;;;4981048;28;93640;-71
2022/07/23 11:00:00;;;;;;;1.33;1.10;;;;;;;;;;4976659;28;93037;-71
2022/07/23 11:02:30;;;;;;;1.73;1.13;;;;;;;;;;4979076;28;96555;-73
2022/07/23 11:05:07;;;;;;;2.15;0.98;;;;;;;;;;4977596;27;93942;-73
2022/07/23 11:07:34;;;;;;;1.15;0.98;;;;;;;;;;4975669;28;94527;-72
2022/07/23 11:10:02;;;;;;;1.88;1.05;;;;;;;;;;4976992;28;94750;-72
2022/07/23 11:12:28;;;;;;;2.35;1.20;;;;;;;;;;4983387;28;94835;-72
2022/07/23 11:15:10;;;;;;;1.20;1.10;;;;;;;;;;4978063;28;93619;-72
2022/07/23 11:17:40;;;;;;;4.25;1.30;;;;;;;;;;4972784;28;94189;-72
2022/07/23 11:20:08;;;;;;;1.38;1.13;;;;;;;;;;4981960;28;93734;-72
2022/07/23 11:22:35;;;;;;;2.15;1.17;;;;;;;;;;4982310;28;93706;-71
2022/07/23 11:25:03;;;;;;;4.35;1.38;;;;;;;;;;4980571;28;94706;-71
2022/07/23 11:27:43;;;;;;;1.77;1.33;;;;;;;;;;4973478;28;96861;-71
2022/07/23 11:30:30;;;;;;;1.50;1.10;;;;;;;;;;4978127;28;94893;-71
2022/07/23 11:33:05;;;;;;;1.83;1.30;;;;;;;;;;4981431;28;92551;-72
2022/07/23 11:35:31;;;;;;;2.33;1.70;;;;;;;;;;4982964;28;96813;-72
2022/07/23 11:38:08;;;;;;;1.17;1.10;;;;;;;;;;4979455;28;93422;-72
2022/07/23 11:40:34;;;;;;;1.42;1.27;;;;;;;;;;4980330;28;93055;-72
2022/07/23 11:43:02;;;;;;;2.08;1.30;;;;;;;;;;4979379;28;93611;-72
2022/07/23 11:45:33;;;;;;;2.00;1.30;;;;;;;;;;4980472;28;92688;-72
2022/07/23 11:47:59;;;;;;;1.40;1.30;;;;;;;;;;4978378;28;94262;-72
2022/07/23 11:50:26;;;;;;;1.88;1.67;;;;;;;;;;4978761;28;93308;-72
2022/07/23 11:52:54;;;;;;;3.45;1.23;;;;;;;;;;4974522;28;95406;-72
2022/07/23 11:55:21;;;;;;;2.08;1.45;;;;;;;;;;4981594;28;94376;-72
2022/07/23 11:57:47;;;;;;;1.60;1.50;;;;;;;;;;4981124;28;94234;-72
2022/07/23 12:00:19;;;;;;;1.80;1.60;;;;;;;;;;4983937;28;94003;-72
2022/07/23 12:02:47;;;;;;;1.37;1.20;;;;;;;;;;4978540;28;92528;-71
2022/07/23 12:05:19;;;;;;;3.17;2.25;;;;;;;;;;5012637;27;92744;-72
2022/07/23 12:07:49;;;;;;;2.70;1.40;;;;;;;;;;4988213;28;93913;-71
2022/07/23 12:10:17;;;;;;;5.40;1.73;;;;;;;;;;4980939;27;92316;-71
2022/07/23 12:12:54;;;;;;;3.17;1.40;;;;;;;;;;4983688;28;94711;-71
2022/07/23 12:15:22;;;;;;;2.78;1.50;;;;;;;;;;4983768;28;93579;-71
2022/07/23 12:17:49;;;;;;;5.82;1.35;;;;;;;;;;4983230;28;96421;-71
2022/07/23 12:20:19;;;;;;;4.28;1.35;;;;;;;;;;4980403;28;95460;-71
2022/07/23 12:22:47;;;;;;;3.35;1.58;;;;;;;;;;4978739;28;94187;-71
2022/07/23 12:25:17;;;;;;;2.83;1.67;;;;;;;;;;4984476;28;93930;-72
2022/07/23 12:27:44;;;;;;;2.03;1.38;;;;;;;;;;4980915;28;94338;-72
2022/07/23 12:30:28;;;;;;;1.30;1.20;;;;;;;;;;4981100;28;94373;-73
2022/07/23 12:33:00;;;;;;;2.38;1.20;;;;;;;;;;5010992;27;92506;-73
2022/07/23 12:35:31;;;;;;;2.47;1.50;;;;;;;;;;5004557;28;93261;-72
2022/07/23 12:38:00;;;;;;;2.75;1.70;;;;;;;;;;5009817;28;94260;-73
2022/07/23 12:40:28;;;;;;;3.90;1.60;;;;;;;;;;5015691;28;92477;-72
2022/07/23 12:43:00;;;;;;;2.42;1.70;;;;;;;;;;4995451;28;95610;-73
2022/07/23 12:45:28;;;;;;;6.72;1.65;;;;;;;;;;5005596;28;94209;-71
2022/07/23 12:47:59;;;;;;;3.78;1.55;;;;;;;;;;5015371;28;93183;-74
2022/07/23 12:50:31;;;;;;;11.60;2.07;;;;;;;;;;5013342;28;94289;-74
2022/07/23 12:53:02;;;;;;;5.40;1.77;;;;;;;;;;5007493;28;92803;-75
2022/07/23 12:55:30;;;;;;;10.90;1.80;;;;;;;;;;5001577;28;93958;-77
2022/07/23 12:58:18;;;;;;;19.13;2.10;;;;;;;;;;5013961;28;94242;-74
2022/07/23 13:01:04;;;;;;;10.77;2.38;;;;;;;;;;4998734;28;92950;-74
2022/07/23 13:03:40;;;;;;;3.58;1.50;;;;;;;;;;5018410;28;92491;-75
2022/07/23 13:06:08;;;;;;;6.78;1.75;;;;;;;;;;5010286;28;92518;-75
2022/07/23 13:08:36;;;;;;;1.73;1.40;;;;;;;;;;4984912;28;94958;-76
2022/07/23 13:11:03;;;;;;;1.80;1.33;;;;;;;;;;4978978;28;94874;-73
2022/07/23 13:13:30;;;;;;;1.55;1.40;;;;;;;;;;4982281;28;95341;-73
2022/07/23 13:15:57;;;;;;;3.97;1.45;;;;;;;;;;4995424;28;93948;-74
2022/07/23 13:18:23;;;;;;;4.30;1.20;;;;;;;;;;4988495;28;94518;-74
2022/07/23 13:20:50;;;;;;;1.42;1.30;;;;;;;;;;4982477;28;93462;-73
2022/07/23 13:23:17;;;;;;;1.65;1.48;;;;;;;;;;4989975;28;93971;-73
2022/07/23 13:25:43;;;;;;;3.65;1.50;;;;;;;;;;4999075;28;92689;-73
2022/07/23 13:28:12;;;;;;;6.45;1.85;;;;;;;;;;5007378;28;93242;-72
2022/07/23 13:30:39;;;;;;;1.88;1.60;;;;;;;;;;5014179;28;93879;-71
2022/07/23 13:33:07;;;;;;;2.65;1.50;;;;;;;;;;4998332;28;94941;-71
2022/07/23 13:35:35;;;;;;;2.33;1.95;;;;;;;;;;5003145;28;96605;-71
2022/07/23 13:38:02;;;;;;;4.13;1.48;;;;;;;;;;5014049;28;93452;-72
2022/07/23 13:40:32;;;;;;;4.00;1.55;;;;;;;;;;5014217;28;92615;-71
2022/07/23 13:42:59;;;;;;;2.20;1.52;;;;;;;;;;5003300;28;92716;-72
2022/07/23 13:45:25;;;;;;;4.45;2.00;;;;;;;;;;5008773;28;93148;-71
2022/07/23 13:47:55;;;;;;;1.42;1.33;;;;;;;;;;5014505;28;92964;-72
2022/07/23 13:50:22;;;;;;;3.92;1.70;;;;;;;;;;5009269;28;92846;-71
2022/07/23 13:52:48;;;;;;;3.35;1.75;;;;;;;;;;5014780;28;92503;-71
2022/07/23 13:55:14;;;;;;;4.47;1.52;;;;;;;;;;5009793;28;93881;-71
2022/07/23 13:57:41;;;;;;;1.63;1.50;;;;;;;;;;5001269;28;95750;-71
2022/07/23 14:00:10;;;;;;;1.40;1.30;;;;;;;;;;4998338;28;92658;-71
2022/07/23 14:02:57;;;;;;;2.17;1.23;;;;;;;;;;4997738;28;92470;-71
2022/07/23 14:05:24;;;;;;;2.30;1.67;;;;;;;;;;4988436;28;93302;-71
2022/07/23 14:07:53;;;;;;;2.55;1.60;;;;;;;;;;4996880;28;92477;-71
2022/07/23 14:10:21;;;;;;;3.67;1.52;;;;;;;;;;4980594;28;93849;-71
2022/07/23 14:12:48;;;;;;;3.03;1.60;;;;;;;;;;4990201;28;92547;-71
2022/07/23 14:15:15;;;;;;;2.92;1.70;;;;;;;;;;4997634;28;92893;-71
2022/07/23 14:17:42;;;;;;;1.58;1.48;;;;;;;;;;4997657;28;93340;-71
2022/07/23 14:20:09;;;;;;;4.15;1.45;;;;;;;;;;5011304;28;94429;-70
2022/07/23 14:22:51;;;;;;;1.48;1.25;;;;;;;;;;5005548;28;95036;-71
2022/07/23 14:25:17;;;;;;;4.13;1.70;;;;;;;;;;4997956;28;92474;-71
2022/07/23 14:27:44;;;;;;;2.58;1.83;;;;;;;;;;5013879;28;92525;-71
2022/07/23 14:30:12;;;;;;;2.53;1.70;;;;;;;;;;5013710;28;92942;-71
2022/07/23 14:32:39;;;;;;;3.13;2.33;;;;;;;;;;5008296;28;92510;-72
2022/07/23 14:35:06;;;;;;;1.85;1.50;;;;;;;;;;5013388;28;93068;-71
2022/07/23 14:37:36;;;;;;;2.90;2.28;;;;;;;;;;5007345;28;94249;-71
2022/07/23 14:40:02;;;;;;;3.08;1.40;;;;;;;;;;5012037;28;91752;-71
2022/07/23 14:42:29;;;;;;;2.70;1.63;;;;;;;;;;5013472;28;92568;-71
2022/07/23 14:44:55;;;;;;;1.55;1.30;;;;;;;;;;5005143;28;93552;-71
2022/07/23 14:47:21;;;;;;;6.95;1.60;;;;;;;;;;5003912;28;94936;-71
2022/07/23 14:49:48;;;;;;;4.25;1.60;;;;;;;;;;5013623;28;95526;-72
2022/07/23 14:52:14;;;;;;;3.13;1.60;;;;;;;;;;5006512;28;94096;-71
2022/07/23 14:54:41;;;;;;;2.05;1.60;;;;;;;;;;5007849;28;93027;-72